sensor_id;sensor_type;location;lat;lon;timestamp;P1;durP1;ratioP1;P2;durP2;ratioP2
14613;SDS011;7393;51.446;6.800;2023-08-08T00:00:52;5.90;;;2.40;;
14613;SDS011;7393;51.446;6.800;2023-08-08T00:03:19;3.57;;;2.23;;
14613;SDS011;7393;51.446;6.800;2023-08-08T00:05:46;3.70;;;1.90;;
14613;SDS011;7393;51.446;6.800;2023-08-08T00:08:13;3.07;;;1.90;;
14613;SDS011;7393;51.446;6.800;2023-08-08T00:10:41;3.90;;;2.10;;
14613;SDS011;7393;51.446;6.800;2023-08-08T00:13:08;2.03;;;1.87;;
14613;SDS011;7393;51.446;6.800;2023-08-08T00:15:35;2.80;;;1.80;;
14613;SDS011;7393;51.446;6.800;2023-08-08T00:18:02;3.67;;;1.80;;
14613;SDS011;7393;51.446;6.800;2023-08-08T00:20:29;2.70;;;1.90;;
14613;SDS011;7393;51.446;6.800;2023-08-08T00:22:56;2.87;;;1.77;;
14613;SDS011;7393;51.446;6.800;2023-08-08T00:25:23;2.80;;;2.00;;
14613;SDS011;7393;51.446;6.800;2023-08-08T00:27:51;3.27;;;2.10;;
14613;SDS011;7393;51.446;6.800;2023-08-08T00:30:17;2.43;;;1.80;;
14613;SDS011;7393;51.446;6.800;2023-08-08T00:32:44;5.17;;;2.17;;
14613;SDS011;7393;51.446;6.800;2023-08-08T00:35:11;3.30;;;1.80;;
14613;SDS011;7393;51.446;6.800;2023-08-08T00:37:38;2.03;;;1.83;;
14613;SDS011;7393;51.446;6.800;2023-08-08T00:40:05;3.30;;;2.20;;
14613;SDS011;7393;51.446;6.800;2023-08-08T00:42:33;2.63;;;2.10;;
14613;SDS011;7393;51.446;6.800;2023-08-08T00:45:01;7.83;;;2.33;;
14613;SDS011;7393;51.446;6.800;2023-08-08T00:47:29;2.73;;;2.10;;
14613;SDS011;7393;51.446;6.800;2023-08-08T00:49:56;3.70;;;2.23;;
14613;SDS011;7393;51.446;6.800;2023-08-08T00:52:23;3.37;;;2.37;;
14613;SDS011;7393;51.446;6.800;2023-08-08T00:54:51;7.93;;;2.23;;
14613;SDS011;7393;51.446;6.800;2023-08-08T00:57:18;5.00;;;2.10;;
14613;SDS011;7393;51.446;6.800;2023-08-08T00:59:45;4.07;;;2.33;;
14613;SDS011;7393;51.446;6.800;2023-08-08T01:02:13;3.13;;;2.17;;
14613;SDS011;7393;51.446;6.800;2023-08-08T01:04:40;5.10;;;2.50;;
14613;SDS011;7393;51.446;6.800;2023-08-08T01:07:09;4.27;;;1.93;;
14613;SDS011;7393;51.446;6.800;2023-08-08T01:09:44;3.43;;;1.73;;
14613;SDS011;7393;51.446;6.800;2023-08-08T01:12:14;5.50;;;1.90;;
14613;SDS011;7393;51.446;6.800;2023-08-08T01:14:42;3.20;;;1.93;;
14613;SDS011;7393;51.446;6.800;2023-08-08T01:17:10;3.47;;;2.43;;
14613;SDS011;7393;51.446;6.800;2023-08-08T01:19:39;4.57;;;2.27;;
14613;SDS011;7393;51.446;6.800;2023-08-08T01:22:07;4.83;;;1.90;;
14613;SDS011;7393;51.446;6.800;2023-08-08T01:24:42;3.13;;;2.00;;
14613;SDS011;7393;51.446;6.800;2023-08-08T01:27:09;3.53;;;2.10;;
14613;SDS011;7393;51.446;6.800;2023-08-08T01:29:37;4.73;;;2.10;;
14613;SDS011;7393;51.446;6.800;2023-08-08T01:32:04;7.37;;;2.50;;
14613;SDS011;7393;51.446;6.800;2023-08-08T01:34:31;4.90;;;2.20;;
14613;SDS011;7393;51.446;6.800;2023-08-08T01:36:59;2.67;;;2.10;;
14613;SDS011;7393;51.446;6.800;2023-08-08T01:39:32;3.23;;;2.20;;
14613;SDS011;7393;51.446;6.800;2023-08-08T01:42:01;7.80;;;2.37;;
14613;SDS011;7393;51.446;6.800;2023-08-08T01:44:28;3.40;;;2.07;;
14613;SDS011;7393;51.446;6.800;2023-08-08T01:46:57;3.20;;;2.50;;
14613;SDS011;7393;51.446;6.800;2023-08-08T01:49:24;4.37;;;2.00;;
14613;SDS011;7393;51.446;6.800;2023-08-08T01:51:51;4.10;;;2.03;;
14613;SDS011;7393;51.446;6.800;2023-08-08T01:54:18;5.73;;;2.43;;
14613;SDS011;7393;51.446;6.800;2023-08-08T01:56:45;5.97;;;2.33;;
14613;SDS011;7393;51.446;6.800;2023-08-08T01:59:13;3.70;;;2.30;;
14613;SDS011;7393;51.446;6.800;2023-08-08T02:01:40;4.67;;;2.50;;
14613;SDS011;7393;51.446;6.800;2023-08-08T02:04:07;7.07;;;2.33;;
14613;SDS011;7393;51.446;6.800;2023-08-08T02:06:34;3.57;;;2.00;;
14613;SDS011;7393;51.446;6.800;2023-08-08T02:09:01;3.53;;;2.30;;
14613;SDS011;7393;51.446;6.800;2023-08-08T02:11:28;2.80;;;2.10;;
14613;SDS011;7393;51.446;6.800;2023-08-08T02:13:54;7.33;;;2.00;;
14613;SDS011;7393;51.446;6.800;2023-08-08T02:16:23;5.00;;;2.23;;
14613;SDS011;7393;51.446;6.800;2023-08-08T02:18:49;7.83;;;2.50;;
14613;SDS011;7393;51.446;6.800;2023-08-08T02:21:16;4.53;;;2.40;;
14613;SDS011;7393;51.446;6.800;2023-08-08T02:23:43;3.07;;;1.93;;
14613;SDS011;7393;51.446;6.800;2023-08-08T02:26:10;4.90;;;2.40;;
14613;SDS011;7393;51.446;6.800;2023-08-08T02:28:37;4.27;;;2.30;;
14613;SDS011;7393;51.446;6.800;2023-08-08T02:31:03;4.37;;;2.27;;
14613;SDS011;7393;51.446;6.800;2023-08-08T02:33:31;5.03;;;2.50;;
14613;SDS011;7393;51.446;6.800;2023-08-08T02:35:58;5.73;;;2.23;;
14613;SDS011;7393;51.446;6.800;2023-08-08T02:38:25;3.20;;;2.20;;
14613;SDS011;7393;51.446;6.800;2023-08-08T02:40:52;6.70;;;2.43;;
14613;SDS011;7393;51.446;6.800;2023-08-08T02:43:19;5.50;;;2.10;;
14613;SDS011;7393;51.446;6.800;2023-08-08T02:45:45;3.73;;;2.43;;
14613;SDS011;7393;51.446;6.800;2023-08-08T02:48:12;5.03;;;2.30;;
14613;SDS011;7393;51.446;6.800;2023-08-08T02:50:40;5.87;;;2.30;;
14613;SDS011;7393;51.446;6.800;2023-08-08T02:53:07;3.47;;;2.20;;
14613;SDS011;7393;51.446;6.800;2023-08-08T02:55:35;3.03;;;2.20;;
14613;SDS011;7393;51.446;6.800;2023-08-08T02:58:02;4.07;;;2.60;;
14613;SDS011;7393;51.446;6.800;2023-08-08T03:00:29;3.97;;;2.50;;
14613;SDS011;7393;51.446;6.800;2023-08-08T03:02:56;4.67;;;2.37;;
14613;SDS011;7393;51.446;6.800;2023-08-08T03:05:23;5.97;;;2.50;;
14613;SDS011;7393;51.446;6.800;2023-08-08T03:07:51;5.00;;;2.60;;
14613;SDS011;7393;51.446;6.800;2023-08-08T03:10:17;5.90;;;2.40;;
14613;SDS011;7393;51.446;6.800;2023-08-08T03:12:44;5.57;;;2.70;;
14613;SDS011;7393;51.446;6.800;2023-08-08T03:15:11;4.27;;;2.67;;
14613;SDS011;7393;51.446;6.800;2023-08-08T03:17:38;4.73;;;2.37;;
14613;SDS011;7393;51.446;6.800;2023-08-08T03:20:05;5.10;;;2.30;;
14613;SDS011;7393;51.446;6.800;2023-08-08T03:22:33;5.80;;;2.60;;
14613;SDS011;7393;51.446;6.800;2023-08-08T03:25:02;3.90;;;2.60;;
14613;SDS011;7393;51.446;6.800;2023-08-08T03:27:30;6.03;;;2.50;;
14613;SDS011;7393;51.446;6.800;2023-08-08T03:29:57;6.07;;;3.07;;
14613;SDS011;7393;51.446;6.800;2023-08-08T03:32:23;8.50;;;2.90;;
14613;SDS011;7393;51.446;6.800;2023-08-08T03:34:50;5.30;;;2.70;;
14613;SDS011;7393;51.446;6.800;2023-08-08T03:37:17;5.63;;;2.90;;
14613;SDS011;7393;51.446;6.800;2023-08-08T03:39:44;3.50;;;2.80;;
14613;SDS011;7393;51.446;6.800;2023-08-08T03:42:12;5.63;;;3.07;;
14613;SDS011;7393;51.446;6.800;2023-08-08T03:44:39;7.13;;;3.03;;
14613;SDS011;7393;51.446;6.800;2023-08-08T03:47:06;6.70;;;3.67;;
14613;SDS011;7393;51.446;6.800;2023-08-08T03:49:33;7.73;;;3.13;;
14613;SDS011;7393;51.446;6.800;2023-08-08T03:52:00;5.63;;;2.90;;
14613;SDS011;7393;51.446;6.800;2023-08-08T03:54:27;5.50;;;3.27;;
14613;SDS011;7393;51.446;6.800;2023-08-08T03:56:54;4.43;;;3.30;;
14613;SDS011;7393;51.446;6.800;2023-08-08T03:59:22;5.67;;;2.83;;
14613;SDS011;7393;51.446;6.800;2023-08-08T04:01:49;7.93;;;3.40;;
14613;SDS011;7393;51.446;6.800;2023-08-08T04:04:16;5.97;;;3.00;;
14613;SDS011;7393;51.446;6.800;2023-08-08T04:06:42;6.10;;;3.50;;
14613;SDS011;7393;51.446;6.800;2023-08-08T04:09:09;5.30;;;3.23;;
14613;SDS011;7393;51.446;6.800;2023-08-08T04:11:36;5.40;;;3.33;;
14613;SDS011;7393;51.446;6.800;2023-08-08T04:14:03;6.63;;;3.50;;
14613;SDS011;7393;51.446;6.800;2023-08-08T04:16:31;7.90;;;3.33;;
14613;SDS011;7393;51.446;6.800;2023-08-08T04:18:58;5.13;;;3.07;;
14613;SDS011;7393;51.446;6.800;2023-08-08T04:21:28;4.10;;;3.10;;
14613;SDS011;7393;51.446;6.800;2023-08-08T04:23:57;6.77;;;3.30;;
14613;SDS011;7393;51.446;6.800;2023-08-08T04:26:24;6.10;;;3.50;;
14613;SDS011;7393;51.446;6.800;2023-08-08T04:28:51;6.30;;;3.97;;
14613;SDS011;7393;51.446;6.800;2023-08-08T04:31:18;7.60;;;3.90;;
14613;SDS011;7393;51.446;6.800;2023-08-08T04:33:46;6.70;;;3.80;;
14613;SDS011;7393;51.446;6.800;2023-08-08T04:36:13;9.43;;;4.10;;
14613;SDS011;7393;51.446;6.800;2023-08-08T04:38:40;12.40;;;4.13;;
14613;SDS011;7393;51.446;6.800;2023-08-08T04:41:07;6.90;;;3.77;;
14613;SDS011;7393;51.446;6.800;2023-08-08T04:43:33;6.03;;;3.90;;
14613;SDS011;7393;51.446;6.800;2023-08-08T04:46:00;7.63;;;4.07;;
14613;SDS011;7393;51.446;6.800;2023-08-08T04:48:27;8.33;;;4.57;;
14613;SDS011;7393;51.446;6.800;2023-08-08T04:50:55;10.90;;;4.50;;
14613;SDS011;7393;51.446;6.800;2023-08-08T04:53:22;8.90;;;4.80;;
14613;SDS011;7393;51.446;6.800;2023-08-08T04:55:49;10.87;;;5.23;;
14613;SDS011;7393;51.446;6.800;2023-08-08T04:58:15;8.20;;;5.10;;
14613;SDS011;7393;51.446;6.800;2023-08-08T05:00:42;13.30;;;5.20;;
14613;SDS011;7393;51.446;6.800;2023-08-08T05:03:09;9.77;;;5.07;;
14613;SDS011;7393;51.446;6.800;2023-08-08T05:05:36;7.97;;;4.57;;
14613;SDS011;7393;51.446;6.800;2023-08-08T05:08:05;10.33;;;5.63;;
14613;SDS011;7393;51.446;6.800;2023-08-08T05:10:31;9.63;;;4.90;;
14613;SDS011;7393;51.446;6.800;2023-08-08T05:12:59;11.03;;;4.70;;
14613;SDS011;7393;51.446;6.800;2023-08-08T05:15:25;8.93;;;4.93;;
14613;SDS011;7393;51.446;6.800;2023-08-08T05:17:52;7.87;;;4.80;;
14613;SDS011;7393;51.446;6.800;2023-08-08T05:20:20;9.87;;;5.10;;
14613;SDS011;7393;51.446;6.800;2023-08-08T05:22:47;11.70;;;5.10;;
14613;SDS011;7393;51.446;6.800;2023-08-08T05:25:15;9.57;;;5.00;;
14613;SDS011;7393;51.446;6.800;2023-08-08T05:27:42;10.23;;;5.30;;
14613;SDS011;7393;51.446;6.800;2023-08-08T05:30:10;8.13;;;5.30;;
14613;SDS011;7393;51.446;6.800;2023-08-08T05:32:37;12.47;;;5.37;;
14613;SDS011;7393;51.446;6.800;2023-08-08T05:35:04;10.20;;;5.77;;
14613;SDS011;7393;51.446;6.800;2023-08-08T05:37:32;11.13;;;5.60;;
14613;SDS011;7393;51.446;6.800;2023-08-08T05:39:58;11.17;;;6.07;;
14613;SDS011;7393;51.446;6.800;2023-08-08T05:42:27;14.07;;;6.17;;
14613;SDS011;7393;51.446;6.800;2023-08-08T05:44:54;14.97;;;5.93;;
14613;SDS011;7393;51.446;6.800;2023-08-08T05:47:21;9.87;;;6.13;;
14613;SDS011;7393;51.446;6.800;2023-08-08T05:49:47;15.97;;;7.07;;
14613;SDS011;7393;51.446;6.800;2023-08-08T05:52:14;9.70;;;6.30;;
14613;SDS011;7393;51.446;6.800;2023-08-08T05:54:41;12.60;;;6.00;;
14613;SDS011;7393;51.446;6.800;2023-08-08T05:57:08;12.57;;;6.20;;
14613;SDS011;7393;51.446;6.800;2023-08-08T05:59:36;14.77;;;6.40;;
14613;SDS011;7393;51.446;6.800;2023-08-08T06:02:03;13.43;;;6.50;;
14613;SDS011;7393;51.446;6.800;2023-08-08T06:04:30;9.80;;;6.40;;
14613;SDS011;7393;51.446;6.800;2023-08-08T06:06:57;14.13;;;6.70;;
14613;SDS011;7393;51.446;6.800;2023-08-08T06:09:24;14.47;;;6.73;;
14613;SDS011;7393;51.446;6.800;2023-08-08T06:11:51;9.40;;;6.60;;
14613;SDS011;7393;51.446;6.800;2023-08-08T06:14:18;11.73;;;6.63;;
14613;SDS011;7393;51.446;6.800;2023-08-08T06:16:46;13.43;;;6.67;;
14613;SDS011;7393;51.446;6.800;2023-08-08T06:19:12;14.87;;;7.40;;
14613;SDS011;7393;51.446;6.800;2023-08-08T06:21:40;11.63;;;6.53;;
14613;SDS011;7393;51.446;6.800;2023-08-08T06:24:07;16.37;;;7.40;;
14613;SDS011;7393;51.446;6.800;2023-08-08T06:26:34;17.07;;;7.10;;
14613;SDS011;7393;51.446;6.800;2023-08-08T06:29:01;10.47;;;7.27;;
14613;SDS011;7393;51.446;6.800;2023-08-08T06:31:27;15.00;;;7.60;;
14613;SDS011;7393;51.446;6.800;2023-08-08T06:33:56;13.53;;;7.47;;
14613;SDS011;7393;51.446;6.800;2023-08-08T06:36:23;15.67;;;7.37;;
14613;SDS011;7393;51.446;6.800;2023-08-08T06:38:50;10.40;;;7.17;;
14613;SDS011;7393;51.446;6.800;2023-08-08T06:41:17;15.27;;;7.90;;
14613;SDS011;7393;51.446;6.800;2023-08-08T06:43:44;17.43;;;8.27;;
14613;SDS011;7393;51.446;6.800;2023-08-08T06:46:10;13.70;;;7.67;;
14613;SDS011;7393;51.446;6.800;2023-08-08T06:48:37;14.37;;;8.33;;
14613;SDS011;7393;51.446;6.800;2023-08-08T06:51:05;14.77;;;8.30;;
14613;SDS011;7393;51.446;6.800;2023-08-08T06:53:32;14.27;;;7.97;;
14613;SDS011;7393;51.446;6.800;2023-08-08T06:55:59;15.77;;;8.40;;
14613;SDS011;7393;51.446;6.800;2023-08-08T06:58:25;12.43;;;8.13;;
14613;SDS011;7393;51.446;6.800;2023-08-08T07:00:52;12.13;;;7.43;;
14613;SDS011;7393;51.446;6.800;2023-08-08T07:03:19;11.67;;;7.37;;
14613;SDS011;7393;51.446;6.800;2023-08-08T07:05:46;11.57;;;7.27;;
14613;SDS011;7393;51.446;6.800;2023-08-08T07:08:18;12.10;;;7.37;;
14613;SDS011;7393;51.446;6.800;2023-08-08T07:10:45;13.63;;;7.30;;
14613;SDS011;7393;51.446;6.800;2023-08-08T07:13:12;13.67;;;6.80;;
14613;SDS011;7393;51.446;6.800;2023-08-08T07:15:40;12.93;;;6.97;;
14613;SDS011;7393;51.446;6.800;2023-08-08T07:18:07;9.63;;;5.97;;
14613;SDS011;7393;51.446;6.800;2023-08-08T07:20:34;12.17;;;5.93;;
14613;SDS011;7393;51.446;6.800;2023-08-08T07:23:01;9.70;;;5.47;;
14613;SDS011;7393;51.446;6.800;2023-08-08T07:25:29;11.87;;;5.70;;
14613;SDS011;7393;51.446;6.800;2023-08-08T07:27:56;12.23;;;5.73;;
14613;SDS011;7393;51.446;6.800;2023-08-08T07:30:23;11.30;;;5.27;;
14613;SDS011;7393;51.446;6.800;2023-08-08T07:32:50;7.80;;;5.40;;
14613;SDS011;7393;51.446;6.800;2023-08-08T07:35:17;8.87;;;4.80;;
14613;SDS011;7393;51.446;6.800;2023-08-08T07:37:44;11.07;;;4.83;;
14613;SDS011;7393;51.446;6.800;2023-08-08T07:40:14;9.50;;;4.70;;
14613;SDS011;7393;51.446;6.800;2023-08-08T07:42:44;10.40;;;4.57;;
14613;SDS011;7393;51.446;6.800;2023-08-08T07:45:11;9.77;;;4.93;;
14613;SDS011;7393;51.446;6.800;2023-08-08T07:47:37;9.53;;;5.00;;
14613;SDS011;7393;51.446;6.800;2023-08-08T07:50:05;8.60;;;3.97;;
14613;SDS011;7393;51.446;6.800;2023-08-08T07:52:33;12.27;;;4.77;;
14613;SDS011;7393;51.446;6.800;2023-08-08T07:55:00;7.47;;;3.80;;
14613;SDS011;7393;51.446;6.800;2023-08-08T07:57:27;10.40;;;3.80;;
14613;SDS011;7393;51.446;6.800;2023-08-08T07:59:56;10.57;;;3.27;;
14613;SDS011;7393;51.446;6.800;2023-08-08T08:02:23;8.70;;;3.40;;
14613;SDS011;7393;51.446;6.800;2023-08-08T08:04:50;7.93;;;3.17;;
14613;SDS011;7393;51.446;6.800;2023-08-08T08:07:16;8.83;;;3.27;;
14613;SDS011;7393;51.446;6.800;2023-08-08T08:09:43;9.23;;;2.90;;
14613;SDS011;7393;51.446;6.800;2023-08-08T08:12:10;10.73;;;3.70;;
14613;SDS011;7393;51.446;6.800;2023-08-08T08:14:37;5.80;;;3.10;;
14613;SDS011;7393;51.446;6.800;2023-08-08T08:17:06;6.93;;;2.90;;
14613;SDS011;7393;51.446;6.800;2023-08-08T08:19:33;7.77;;;3.13;;
14613;SDS011;7393;51.446;6.800;2023-08-08T08:22:01;8.53;;;3.07;;
14613;SDS011;7393;51.446;6.800;2023-08-08T08:24:28;5.93;;;2.90;;
14613;SDS011;7393;51.446;6.800;2023-08-08T08:26:54;11.27;;;2.90;;
14613;SDS011;7393;51.446;6.800;2023-08-08T08:29:21;7.43;;;2.90;;
14613;SDS011;7393;51.446;6.800;2023-08-08T08:31:48;5.23;;;2.70;;
14613;SDS011;7393;51.446;6.800;2023-08-08T08:34:16;6.43;;;2.60;;
14613;SDS011;7393;51.446;6.800;2023-08-08T08:36:43;7.63;;;2.90;;
14613;SDS011;7393;51.446;6.800;2023-08-08T08:39:10;7.67;;;2.23;;
14613;SDS011;7393;51.446;6.800;2023-08-08T08:41:37;6.17;;;2.70;;
14613;SDS011;7393;51.446;6.800;2023-08-08T08:44:04;4.83;;;2.20;;
14613;SDS011;7393;51.446;6.800;2023-08-08T08:46:32;5.37;;;2.10;;
14613;SDS011;7393;51.446;6.800;2023-08-08T08:49:01;7.13;;;2.43;;
14613;SDS011;7393;51.446;6.800;2023-08-08T08:51:34;12.10;;;2.50;;
14613;SDS011;7393;51.446;6.800;2023-08-08T08:54:02;6.07;;;2.20;;
14613;SDS011;7393;51.446;6.800;2023-08-08T08:56:29;3.87;;;2.00;;
14613;SDS011;7393;51.446;6.800;2023-08-08T08:58:57;6.77;;;2.23;;
14613;SDS011;7393;51.446;6.800;2023-08-08T09:01:25;9.63;;;2.60;;
14613;SDS011;7393;51.446;6.800;2023-08-08T09:03:53;5.80;;;2.10;;
14613;SDS011;7393;51.446;6.800;2023-08-08T09:06:20;10.30;;;2.70;;
14613;SDS011;7393;51.446;6.800;2023-08-08T09:08:49;5.87;;;2.30;;
14613;SDS011;7393;51.446;6.800;2023-08-08T09:11:16;7.50;;;2.67;;
14613;SDS011;7393;51.446;6.800;2023-08-08T09:13:43;6.43;;;2.00;;
14613;SDS011;7393;51.446;6.800;2023-08-08T09:16:10;3.07;;;1.93;;
14613;SDS011;7393;51.446;6.800;2023-08-08T09:18:37;6.60;;;2.17;;
14613;SDS011;7393;51.446;6.800;2023-08-08T09:21:04;7.07;;;2.33;;
14613;SDS011;7393;51.446;6.800;2023-08-08T09:23:31;6.83;;;2.40;;
14613;SDS011;7393;51.446;6.800;2023-08-08T09:25:59;6.50;;;2.40;;
14613;SDS011;7393;51.446;6.800;2023-08-08T09:28:26;5.00;;;2.30;;
14613;SDS011;7393;51.446;6.800;2023-08-08T09:30:53;6.03;;;2.30;;
14613;SDS011;7393;51.446;6.800;2023-08-08T09:33:21;5.30;;;2.27;;
14613;SDS011;7393;51.446;6.800;2023-08-08T09:35:47;5.10;;;2.70;;
14613;SDS011;7393;51.446;6.800;2023-08-08T09:38:14;3.77;;;2.47;;
14613;SDS011;7393;51.446;6.800;2023-08-08T09:40:41;6.20;;;2.40;;
14613;SDS011;7393;51.446;6.800;2023-08-08T09:43:11;6.23;;;2.33;;
14613;SDS011;7393;51.446;6.800;2023-08-08T09:45:38;5.70;;;2.80;;
14613;SDS011;7393;51.446;6.800;2023-08-08T09:48:07;4.97;;;2.23;;
14613;SDS011;7393;51.446;6.800;2023-08-08T09:50:34;5.57;;;2.43;;
14613;SDS011;7393;51.446;6.800;2023-08-08T09:53:01;5.97;;;2.43;;
14613;SDS011;7393;51.446;6.800;2023-08-08T09:55:28;5.53;;;2.33;;
14613;SDS011;7393;51.446;6.800;2023-08-08T09:57:55;6.90;;;2.47;;
14613;SDS011;7393;51.446;6.800;2023-08-08T10:00:25;5.50;;;2.30;;
14613;SDS011;7393;51.446;6.800;2023-08-08T10:02:53;6.23;;;2.30;;
14613;SDS011;7393;51.446;6.800;2023-08-08T10:05:20;3.47;;;2.17;;
14613;SDS011;7393;51.446;6.800;2023-08-08T10:07:47;4.70;;;2.10;;
14613;SDS011;7393;51.446;6.800;2023-08-08T10:10:14;8.10;;;2.57;;
14613;SDS011;7393;51.446;6.800;2023-08-08T10:12:43;7.57;;;2.47;;
14613;SDS011;7393;51.446;6.800;2023-08-08T10:15:11;6.03;;;2.20;;
14613;SDS011;7393;51.446;6.800;2023-08-08T10:17:39;8.23;;;2.43;;
14613;SDS011;7393;51.446;6.800;2023-08-08T10:20:08;4.50;;;2.07;;
14613;SDS011;7393;51.446;6.800;2023-08-08T10:22:37;6.07;;;2.17;;
14613;SDS011;7393;51.446;6.800;2023-08-08T10:25:08;5.47;;;2.10;;
14613;SDS011;7393;51.446;6.800;2023-08-08T10:27:36;6.03;;;2.17;;
14613;SDS011;7393;51.446;6.800;2023-08-08T10:30:05;5.03;;;2.40;;
14613;SDS011;7393;51.446;6.800;2023-08-08T10:32:43;6.97;;;2.70;;
14613;SDS011;7393;51.446;6.800;2023-08-08T10:35:12;4.50;;;2.00;;
14613;SDS011;7393;51.446;6.800;2023-08-08T10:37:39;7.17;;;2.20;;
14613;SDS011;7393;51.446;6.800;2023-08-08T10:40:07;3.70;;;1.97;;
14613;SDS011;7393;51.446;6.800;2023-08-08T10:42:42;5.00;;;2.10;;
14613;SDS011;7393;51.446;6.800;2023-08-08T10:45:12;4.30;;;2.10;;
14613;SDS011;7393;51.446;6.800;2023-08-08T10:47:42;6.23;;;1.80;;
14613;SDS011;7393;51.446;6.800;2023-08-08T10:50:10;5.10;;;2.00;;
14613;SDS011;7393;51.446;6.800;2023-08-08T10:52:38;4.70;;;2.27;;
14613;SDS011;7393;51.446;6.800;2023-08-08T10:55:19;3.77;;;1.90;;
14613;SDS011;7393;51.446;6.800;2023-08-08T10:57:53;3.43;;;1.90;;
14613;SDS011;7393;51.446;6.800;2023-08-08T11:00:23;4.60;;;1.93;;
14613;SDS011;7393;51.446;6.800;2023-08-08T11:02:53;5.60;;;2.27;;
14613;SDS011;7393;51.446;6.800;2023-08-08T11:05:20;7.60;;;2.80;;
14613;SDS011;7393;51.446;6.800;2023-08-08T11:07:48;5.10;;;2.20;;
14613;SDS011;7393;51.446;6.800;2023-08-08T11:10:15;6.37;;;2.07;;
14613;SDS011;7393;51.446;6.800;2023-08-08T11:12:51;5.17;;;1.97;;
14613;SDS011;7393;51.446;6.800;2023-08-08T11:15:19;4.47;;;2.00;;
14613;SDS011;7393;51.446;6.800;2023-08-08T11:17:46;5.83;;;2.10;;
14613;SDS011;7393;51.446;6.800;2023-08-08T11:20:15;4.73;;;2.00;;
14613;SDS011;7393;51.446;6.800;2023-08-08T11:22:42;3.87;;;2.07;;
14613;SDS011;7393;51.446;6.800;2023-08-08T11:25:09;3.40;;;1.90;;
14613;SDS011;7393;51.446;6.800;2023-08-08T11:27:35;7.10;;;1.70;;
14613;SDS011;7393;51.446;6.800;2023-08-08T11:30:03;4.37;;;2.07;;
14613;SDS011;7393;51.446;6.800;2023-08-08T11:32:31;4.57;;;1.70;;
14613;SDS011;7393;51.446;6.800;2023-08-08T11:35:00;3.00;;;1.50;;
14613;SDS011;7393;51.446;6.800;2023-08-08T11:37:29;3.13;;;1.63;;
14613;SDS011;7393;51.446;6.800;2023-08-08T11:39:56;3.00;;;1.70;;
14613;SDS011;7393;51.446;6.800;2023-08-08T11:42:23;2.67;;;1.77;;
14613;SDS011;7393;51.446;6.800;2023-08-08T11:44:50;4.83;;;2.10;;
14613;SDS011;7393;51.446;6.800;2023-08-08T11:47:17;3.30;;;1.90;;
14613;SDS011;7393;51.446;6.800;2023-08-08T11:49:51;6.60;;;2.00;;
14613;SDS011;7393;51.446;6.800;2023-08-08T11:52:18;6.83;;;2.03;;
14613;SDS011;7393;51.446;6.800;2023-08-08T11:54:51;4.27;;;2.00;;
14613;SDS011;7393;51.446;6.800;2023-08-08T11:57:18;4.13;;;1.87;;
14613;SDS011;7393;51.446;6.800;2023-08-08T11:59:44;7.83;;;2.20;;
14613;SDS011;7393;51.446;6.800;2023-08-08T12:02:14;5.40;;;2.13;;
14613;SDS011;7393;51.446;6.800;2023-08-08T12:04:43;7.17;;;2.57;;
14613;SDS011;7393;51.446;6.800;2023-08-08T12:07:10;5.90;;;2.17;;
14613;SDS011;7393;51.446;6.800;2023-08-08T12:09:37;4.33;;;2.03;;
14613;SDS011;7393;51.446;6.800;2023-08-08T12:12:07;8.60;;;2.30;;
14613;SDS011;7393;51.446;6.800;2023-08-08T12:14:36;4.87;;;2.33;;
14613;SDS011;7393;51.446;6.800;2023-08-08T12:17:03;4.80;;;2.10;;
14613;SDS011;7393;51.446;6.800;2023-08-08T12:19:30;6.20;;;2.23;;
14613;SDS011;7393;51.446;6.800;2023-08-08T12:21:57;5.83;;;2.13;;
14613;SDS011;7393;51.446;6.800;2023-08-08T12:24:24;5.63;;;2.23;;
14613;SDS011;7393;51.446;6.800;2023-08-08T12:26:51;5.57;;;2.10;;
14613;SDS011;7393;51.446;6.800;2023-08-08T12:29:19;6.33;;;2.13;;
14613;SDS011;7393;51.446;6.800;2023-08-08T12:31:46;4.63;;;1.97;;
14613;SDS011;7393;51.446;6.800;2023-08-08T12:34:12;2.20;;;1.83;;
14613;SDS011;7393;51.446;6.800;2023-08-08T12:36:39;5.90;;;2.07;;
14613;SDS011;7393;51.446;6.800;2023-08-08T12:39:06;5.70;;;2.00;;
14613;SDS011;7393;51.446;6.800;2023-08-08T12:41:33;5.07;;;1.90;;
14613;SDS011;7393;51.446;6.800;2023-08-08T12:44:00;3.77;;;1.93;;
14613;SDS011;7393;51.446;6.800;2023-08-08T12:46:29;2.27;;;1.90;;
14613;SDS011;7393;51.446;6.800;2023-08-08T12:48:56;3.73;;;2.00;;
14613;SDS011;7393;51.446;6.800;2023-08-08T12:51:23;3.77;;;1.60;;
14613;SDS011;7393;51.446;6.800;2023-08-08T12:53:49;4.40;;;1.90;;
14613;SDS011;7393;51.446;6.800;2023-08-08T12:56:16;4.90;;;1.80;;
14613;SDS011;7393;51.446;6.800;2023-08-08T12:58:43;5.60;;;2.33;;
14613;SDS011;7393;51.446;6.800;2023-08-08T13:01:10;6.30;;;1.77;;
14613;SDS011;7393;51.446;6.800;2023-08-08T13:03:38;2.70;;;1.67;;
14613;SDS011;7393;51.446;6.800;2023-08-08T13:06:05;3.27;;;2.00;;
14613;SDS011;7393;51.446;6.800;2023-08-08T13:08:31;6.27;;;1.87;;
14613;SDS011;7393;51.446;6.800;2023-08-08T13:10:59;3.37;;;1.80;;
14613;SDS011;7393;51.446;6.800;2023-08-08T13:13:26;4.77;;;1.80;;
14613;SDS011;7393;51.446;6.800;2023-08-08T13:15:53;3.23;;;2.00;;
14613;SDS011;7393;51.446;6.800;2023-08-08T13:18:20;8.43;;;2.10;;
14613;SDS011;7393;51.446;6.800;2023-08-08T13:20:48;5.10;;;2.00;;
14613;SDS011;7393;51.446;6.800;2023-08-08T13:23:15;5.30;;;2.07;;
14613;SDS011;7393;51.446;6.800;2023-08-08T13:25:41;6.53;;;2.03;;
14613;SDS011;7393;51.446;6.800;2023-08-08T13:28:08;2.43;;;1.63;;
14613;SDS011;7393;51.446;6.800;2023-08-08T13:30:35;3.83;;;1.60;;
14613;SDS011;7393;51.446;6.800;2023-08-08T13:33:02;4.83;;;2.00;;
14613;SDS011;7393;51.446;6.800;2023-08-08T13:35:29;2.73;;;1.33;;
14613;SDS011;7393;51.446;6.800;2023-08-08T13:37:57;3.10;;;1.60;;
14613;SDS011;7393;51.446;6.800;2023-08-08T13:40:24;5.70;;;1.70;;
14613;SDS011;7393;51.446;6.800;2023-08-08T13:42:51;5.07;;;1.60;;
14613;SDS011;7393;51.446;6.800;2023-08-08T13:45:18;3.50;;;1.60;;
14613;SDS011;7393;51.446;6.800;2023-08-08T13:47:46;5.47;;;1.50;;
14613;SDS011;7393;51.446;6.800;2023-08-08T13:50:13;3.40;;;1.40;;
14613;SDS011;7393;51.446;6.800;2023-08-08T13:52:40;2.60;;;1.67;;
14613;SDS011;7393;51.446;6.800;2023-08-08T13:55:08;3.70;;;2.03;;
14613;SDS011;7393;51.446;6.800;2023-08-08T13:57:35;2.60;;;1.63;;
14613;SDS011;7393;51.446;6.800;2023-08-08T14:00:02;6.33;;;2.03;;
14613;SDS011;7393;51.446;6.800;2023-08-08T14:02:31;2.73;;;1.67;;
14613;SDS011;7393;51.446;6.800;2023-08-08T14:04:58;4.83;;;1.63;;
14613;SDS011;7393;51.446;6.800;2023-08-08T14:07:25;5.80;;;1.70;;
14613;SDS011;7393;51.446;6.800;2023-08-08T14:09:51;6.87;;;1.90;;
14613;SDS011;7393;51.446;6.800;2023-08-08T14:12:20;4.70;;;1.70;;
14613;SDS011;7393;51.446;6.800;2023-08-08T14:14:46;4.93;;;2.40;;
14613;SDS011;7393;51.446;6.800;2023-08-08T14:17:13;3.47;;;2.00;;
14613;SDS011;7393;51.446;6.800;2023-08-08T14:19:40;3.97;;;1.90;;
14613;SDS011;7393;51.446;6.800;2023-08-08T14:22:07;6.30;;;1.70;;
14613;SDS011;7393;51.446;6.800;2023-08-08T14:24:34;4.33;;;1.70;;
14613;SDS011;7393;51.446;6.800;2023-08-08T14:27:00;4.33;;;1.97;;
14613;SDS011;7393;51.446;6.800;2023-08-08T14:29:29;3.23;;;1.90;;
14613;SDS011;7393;51.446;6.800;2023-08-08T14:31:55;3.27;;;1.40;;
14613;SDS011;7393;51.446;6.800;2023-08-08T14:34:27;2.67;;;1.60;;
14613;SDS011;7393;51.446;6.800;2023-08-08T14:36:55;3.40;;;1.60;;
14613;SDS011;7393;51.446;6.800;2023-08-08T14:39:22;2.80;;;1.43;;
14613;SDS011;7393;51.446;6.800;2023-08-08T14:41:49;5.50;;;1.50;;
14613;SDS011;7393;51.446;6.800;2023-08-08T14:44:16;1.70;;;1.30;;
14613;SDS011;7393;51.446;6.800;2023-08-08T14:46:45;2.70;;;1.43;;
14613;SDS011;7393;51.446;6.800;2023-08-08T14:49:12;3.97;;;1.20;;
14613;SDS011;7393;51.446;6.800;2023-08-08T14:51:39;1.63;;;1.20;;
14613;SDS011;7393;51.446;6.800;2023-08-08T14:54:06;3.10;;;1.23;;
14613;SDS011;7393;51.446;6.800;2023-08-08T14:56:32;2.60;;;1.10;;
14613;SDS011;7393;51.446;6.800;2023-08-08T14:59:00;4.53;;;0.80;;
14613;SDS011;7393;51.446;6.800;2023-08-08T15:01:28;1.50;;;1.03;;